Time;durP1;ratioP1;P1;durP2;ratioP2;P2;SDS_P1;SDS_P2;PMS_P1;PMS_P2;Temp;Humidity;BMP_temperature;BMP_pressure;BME280_temperature;BME280_humidity;BME280_pressure;Samples;Min_cycle;Max_cycle;Signal;HPM_P1;HPM_P2
2022/01/18 00:01:26;;;;;;;44.15;9.65;;;6.10;99.90;;;;;;5013527;28;20073;-90
2022/01/18 00:03:52;;;;;;;41.33;9.57;;;6.10;99.90;;;;;;5013717;28;20033;-89
2022/01/18 00:06:18;;;;;;;43.90;8.60;;;6.10;99.90;;;;;;5013478;28;20078;-89
2022/01/18 00:08:43;;;;;;;46.15;9.55;;;6.10;99.90;;;;;;5014505;28;20468;-90
2022/01/18 00:11:09;;;;;;;44.70;10.07;;;6.20;99.90;;;;;;5031093;28;20392;-91
2022/01/18 00:13:55;;;;;;;54.00;10.40;;;6.20;99.90;;;;;;5031964;28;20021;-90
2022/01/18 00:18:51;;;;;;;52.10;9.38;;;6.20;99.90;;;;;;5032886;28;20029;-90
2022/01/18 00:21:50;;;;;;;58.50;10.05;;;6.20;99.90;;;;;;5014575;28;20604;-90
2022/01/18 00:24:07;;;;;;;45.35;9.55;;;6.30;99.90;;;;;;5028864;28;20025;-91
2022/01/18 00:26:33;;;;;;;51.85;11.85;;;6.30;99.90;;;;;;5014474;28;20052;-90
2022/01/18 00:29:03;;;;;;;38.85;8.10;;;6.30;99.90;;;;;;5013831;28;20052;-90
2022/01/18 00:36:54;;;;;;;46.05;8.88;;;6.30;99.90;;;;;;5030546;28;20025;-90
2022/01/18 00:39:20;;;;;;;54.47;10.35;;;6.30;99.90;;;;;;5031079;28;20025;-91
2022/01/18 00:41:46;;;;;;;39.40;8.88;;;6.30;99.90;;;;;;5008200;28;20515;-91
2022/01/18 00:44:12;;;;;;;54.47;10.45;;;6.30;99.90;;;;;;5030361;28;20437;-90
2022/01/18 00:46:39;;;;;;;43.40;9.07;;;6.30;99.90;;;;;;5012594;28;20071;-90
2022/01/18 00:49:05;;;;;;;49.58;9.88;;;6.30;99.90;;;;;;5032167;28;20462;-91
2022/01/18 00:51:37;;;;;;;50.88;9.77;;;6.30;99.90;;;;;;5012956;28;20539;-91
2022/01/18 00:54:04;;;;;;;35.40;9.43;;;6.30;99.90;;;;;;5000637;28;20560;-90
2022/01/18 00:56:31;;;;;;;43.92;8.82;;;6.30;99.90;;;;;;5031336;28;20029;-91
2022/01/18 00:58:58;;;;;;;48.90;9.65;;;6.30;99.90;;;;;;5030627;28;20021;-90
2022/01/18 01:01:26;;;;;;;59.78;10.35;;;6.30;99.90;;;;;;5030667;28;20034;-91
2022/01/18 01:03:55;;;;;;;46.65;10.15;;;6.40;99.90;;;;;;5014075;28;20474;-90
2022/01/18 01:06:22;;;;;;;45.25;10.82;;;6.30;99.90;;;;;;5014685;28;20036;-90
2022/01/18 01:08:48;;;;;;;46.10;9.57;;;6.50;99.90;;;;;;5012341;28;20044;-91
2022/01/18 01:11:17;;;;;;;44.83;9.75;;;6.50;99.90;;;;;;5013264;28;20029;-90
2022/01/18 01:13:46;;;;;;;45.80;9.80;;;6.50;99.90;;;;;;5025367;28;20107;-90
2022/01/18 01:35:44;;;;;;;54.15;12.02;;;6.40;99.90;;;;;;5030650;28;20052;-90
2022/01/18 01:43:28;;;;;;;57.17;10.68;;;6.40;99.90;;;;;;5030477;28;20032;-90
2022/01/18 01:45:54;;;;;;;44.30;11.13;;;6.30;99.90;;;;;;5012447;28;20125;-90
2022/01/18 01:48:22;;;;;;;48.85;11.25;;;6.30;99.90;;;;;;5027641;28;20083;-91
2022/01/18 01:50:53;;;;;;;48.60;11.95;;;6.30;99.90;;;;;;5017269;28;20029;-90
2022/01/18 01:53:22;;;;;;;55.72;11.82;;;6.30;99.90;;;;;;5028726;28;20029;-90
2022/01/18 01:55:48;;;;;;;52.30;11.27;;;6.30;99.90;;;;;;5014126;28;20489;-89
2022/01/18 01:58:15;;;;;;;52.15;10.15;;;6.40;99.90;;;;;;5033956;28;20025;-90
2022/01/18 02:00:49;;;;;;;54.65;12.15;;;6.40;99.90;;;;;;5015605;28;20401;-90
2022/01/18 02:03:15;;;;;;;51.33;10.82;;;6.50;99.90;;;;;;5031832;28;20033;-91
2022/01/18 02:05:41;;;;;;;43.63;11.05;;;6.50;99.90;;;;;;5018890;28;20214;-90
2022/01/18 02:08:07;;;;;;;55.13;12.27;;;6.50;99.90;;;;;;5015271;28;20120;-90
2022/01/18 02:10:37;;;;;;;53.20;11.52;;;6.50;99.90;;;;;;5034021;28;20045;-90
2022/01/18 02:13:04;;;;;;;43.90;10.73;;;6.60;99.90;;;;;;5015824;28;20074;-90
2022/01/18 02:15:30;;;;;;;56.47;12.27;;;6.50;99.90;;;;;;5033827;28;20472;-91
2022/01/18 02:23:27;;;;;;;49.72;11.13;;;6.60;99.90;;;;;;5032451;28;20087;-90
2022/01/18 02:25:53;;;;;;;40.40;11.05;;;6.60;99.90;;;;;;5015247;28;20434;-89
2022/01/18 02:28:22;;;;;;;45.42;11.93;;;6.50;99.90;;;;;;5016929;28;20023;-91
2022/01/18 02:30:49;;;;;;;46.22;11.45;;;6.50;99.90;;;;;;5016335;28;20094;-90
2022/01/18 02:33:15;;;;;;;53.92;12.23;;;6.50;99.90;;;;;;5014981;28;20121;-91
2022/01/18 02:35:41;;;;;;;70.68;13.90;;;6.50;99.90;;;;;;5014077;28;20033;-90
2022/01/18 02:38:07;;;;;;;72.57;13.85;;;6.50;99.90;;;;;;5013443;28;20087;-90
2022/01/18 02:40:33;;;;;;;52.00;12.75;;;6.50;99.90;;;;;;5032666;28;20030;-91
2022/01/18 02:43:46;;;;;;;50.70;12.70;;;6.40;99.90;;;;;;5015129;28;20034;-90
2022/01/18 02:45:47;;;;;;;49.90;14.20;;;6.40;99.90;;;;;;5033492;28;20393;-91
2022/01/18 02:48:13;;;;;;;49.13;14.07;;;6.40;99.90;;;;;;5014916;28;20025;-90
2022/01/18 02:50:38;;;;;;;55.20;14.82;;;6.40;99.90;;;;;;5015235;28;20045;-90
2022/01/18 02:53:04;;;;;;;64.55;15.35;;;6.30;99.90;;;;;;5013930;28;20402;-90
2022/01/18 02:55:30;;;;;;;57.42;15.05;;;6.40;99.90;;;;;;5015085;28;20036;-91
2022/01/18 02:58:02;;;;;;;63.90;15.23;;;6.40;99.90;;;;;;5013858;28;20032;-91
2022/01/18 03:00:43;;;;;;;49.38;15.32;;;6.40;99.90;;;;;;5013039;28;20417;-91
2022/01/18 03:03:17;;;;;;;59.25;14.18;;;6.40;99.90;;;;;;5015893;28;20596;-90
2022/01/18 03:05:45;;;;;;;60.42;14.95;;;6.40;99.90;;;;;;5015160;28;20044;-90
2022/01/18 03:08:12;;;;;;;74.93;16.40;;;6.40;99.90;;;;;;5012900;28;20025;-89
2022/01/18 03:10:39;;;;;;;61.15;15.45;;;6.40;99.90;;;;;;5014866;28;20124;-91
2022/01/18 03:13:05;;;;;;;58.15;15.65;;;6.30;99.90;;;;;;5015852;28;20151;-91
2022/01/18 03:15:32;;;;;;;77.90;18.65;;;6.30;99.90;;;;;;5014661;28;20026;-91
2022/01/18 03:17:57;;;;;;;98.38;18.55;;;6.30;99.90;;;;;;5015241;28;20036;-89
2022/01/18 03:20:23;;;;;;;81.75;18.55;;;6.30;99.90;;;;;;5015958;28;20112;-90
2022/01/18 03:22:50;;;;;;;82.40;18.23;;;6.30;99.90;;;;;;5012892;28;20536;-90
2022/01/18 03:25:39;;;;;;;98.28;17.90;;;6.30;99.90;;;;;;5010515;28;20029;-90
2022/01/18 03:28:07;;;;;;;87.47;19.42;;;6.30;99.90;;;;;;5014789;28;20033;-90
2022/01/18 03:30:57;;;;;;;89.28;18.15;;;6.20;99.90;;;;;;5014704;28;20045;-91
2022/01/18 03:33:25;;;;;;;90.47;18.48;;;6.20;99.90;;;;;;5013149;28;20049;-90
2022/01/18 03:35:56;;;;;;;86.00;18.92;;;6.10;99.90;;;;;;5001008;28;20044;-91
2022/01/18 03:38:29;;;;;;;96.88;17.70;;;6.10;99.90;;;;;;5015714;28;20144;-90
2022/01/18 03:40:59;;;;;;;88.78;16.58;;;6.10;99.90;;;;;;5016070;28;20039;-90
2022/01/18 03:43:25;;;;;;;112.30;17.73;;;6.10;99.90;;;;;;5032219;28;20032;-90
2022/01/18 03:45:54;;;;;;;84.03;17.08;;;6.10;99.90;;;;;;5031605;28;20029;-90
2022/01/18 03:48:36;;;;;;;99.72;16.67;;;6.00;99.90;;;;;;5032261;28;20429;-90
2022/01/18 03:51:04;;;;;;;101.60;17.50;;;6.00;99.90;;;;;;5013152;28;20044;-90
2022/01/18 03:53:30;;;;;;;108.07;17.02;;;6.00;99.90;;;;;;5014587;28;20036;-90
2022/01/18 03:55:59;;;;;;;99.47;16.85;;;6.00;99.90;;;;;;5014904;28;20477;-90
2022/01/18 03:58:25;;;;;;;126.53;16.67;;;5.90;99.90;;;;;;5021849;28;20112;-91
2022/01/18 04:00:50;;;;;;;97.10;16.98;;;5.90;99.90;;;;;;5031540;28;20120;-90
2022/01/18 04:03:18;;;;;;;90.60;16.20;;;5.90;99.90;;;;;;5031267;28;20357;-91
2022/01/18 04:05:44;;;;;;;98.80;16.77;;;5.90;99.90;;;;;;5031976;28;20112;-91
2022/01/18 04:08:09;;;;;;;106.82;17.25;;;5.80;99.90;;;;;;5015023;28;20017;-91
2022/01/18 04:10:35;;;;;;;85.60;17.42;;;5.80;99.90;;;;;;5014336;28;20033;-90
2022/01/18 04:13:01;;;;;;;120.47;17.60;;;5.80;99.90;;;;;;5031260;28;20087;-90
2022/01/18 04:15:26;;;;;;;115.93;18.98;;;5.70;99.90;;;;;;5032043;28;20040;-90
2022/01/18 04:18:09;;;;;;;99.72;17.77;;;5.70;99.90;;;;;;5031320;28;20030;-90
2022/01/18 04:26:52;;;;;;;96.05;17.25;;;5.70;99.90;;;;;;5031744;28;20095;-90
2022/01/18 04:28:57;;;;;;;90.68;18.73;;;5.70;99.90;;;;;;5029520;28;20107;-90
2022/01/18 04:31:24;;;;;;;62.30;15.63;;;5.80;99.90;;;;;;5014716;28;20021;-91
2022/01/18 04:33:50;;;;;;;42.63;11.57;;;5.80;99.90;;;;;;5011135;28;20044;-92
2022/01/18 04:36:16;;;;;;;45.22;11.18;;;5.80;99.90;;;;;;5012970;28;20025;-92
2022/01/18 04:38:41;;;;;;;47.95;10.45;;;5.80;99.90;;;;;;5013538;28;20036;-91
2022/01/18 04:41:11;;;;;;;43.63;10.73;;;5.90;99.90;;;;;;5031626;28;20022;-90
2022/01/18 04:44:05;;;;;;;41.05;9.82;;;5.90;99.90;;;;;;5013564;28;20021;-92
2022/01/18 04:49:15;;;;;;;37.88;10.35;;;5.90;99.90;;;;;;5027702;28;20041;-91
2022/01/18 04:51:42;;;;;;;41.92;10.25;;;5.90;99.90;;;;;;5013838;28;20930;-90
2022/01/18 04:54:10;;;;;;;40.22;10.32;;;5.90;99.90;;;;;;5029171;28;20025;-90
2022/01/18 04:59:10;;;;;;;40.83;9.93;;;6.00;99.90;;;;;;5032285;28;20029;-91
2022/01/18 05:01:37;;;;;;;46.20;10.50;;;6.00;99.90;;;;;;5014097;28;20022;-91
2022/01/18 05:04:03;;;;;;;55.85;11.32;;;6.10;99.90;;;;;;5029752;28;20169;-90
2022/01/18 05:06:29;;;;;;;43.67;11.32;;;6.10;99.90;;;;;;5014365;28;20531;-90
2022/01/18 05:08:56;;;;;;;51.65;12.18;;;6.10;99.90;;;;;;5013938;28;20061;-91
2022/01/18 05:11:24;;;;;;;47.33;10.63;;;6.10;99.90;;;;;;5036518;28;20037;-91
2022/01/18 05:14:09;;;;;;;41.80;10.43;;;6.10;99.90;;;;;;5011330;28;20029;-91
2022/01/18 05:19:29;;;;;;;60.78;13.77;;;6.10;99.90;;;;;;5029505;28;20487;-92
2022/01/18 05:24:21;;;;;;;73.45;14.30;;;6.00;99.90;;;;;;5036966;28;20056;-92
2022/01/18 05:26:47;;;;;;;66.15;12.90;;;5.90;99.90;;;;;;5010072;28;20034;-92
2022/01/18 05:29:13;;;;;;;76.72;13.35;;;5.80;99.90;;;;;;5036196;28;20038;-91
2022/01/18 05:31:39;;;;;;;55.00;12.80;;;5.80;99.90;;;;;;5008593;28;20050;-92
2022/01/18 05:34:04;;;;;;;56.70;12.73;;;5.80;99.90;;;;;;5034782;28;20103;-92
2022/01/18 05:36:31;;;;;;;65.78;13.93;;;5.70;99.90;;;;;;5012046;28;20036;-91
2022/01/18 05:38:56;;;;;;;77.55;14.32;;;5.70;99.90;;;;;;5018450;28;20025;-91
2022/01/18 05:41:22;;;;;;;60.05;13.05;;;5.80;99.90;;;;;;5021114;28;20469;-92
2022/01/18 05:43:48;;;;;;;59.58;12.88;;;5.70;99.90;;;;;;5014861;28;20033;-91
2022/01/18 05:46:13;;;;;;;60.80;13.10;;;5.70;99.90;;;;;;5016813;28;20393;-90
2022/01/18 05:48:39;;;;;;;68.00;13.20;;;5.70;99.90;;;;;;5013449;28;20025;-91
2022/01/18 05:51:04;;;;;;;48.58;13.15;;;5.60;99.90;;;;;;5013976;28;20038;-90
2022/01/18 05:53:31;;;;;;;68.82;14.57;;;5.60;99.90;;;;;;5013832;28;20452;-90
2022/01/18 05:55:58;;;;;;;67.65;13.50;;;5.60;99.90;;;;;;5018532;28;20028;-92
2022/01/18 05:58:24;;;;;;;51.15;12.40;;;5.60;99.90;;;;;;5032331;28;20022;-92
2022/01/18 06:00:54;;;;;;;52.35;12.95;;;5.60;99.90;;;;;;5017375;28;20026;-91
2022/01/18 06:03:27;;;;;;;49.95;11.32;;;5.60;99.90;;;;;;5035482;28;20037;-92
2022/01/18 06:08:41;;;;;;;54.88;12.80;;;5.60;99.90;;;;;;5033476;28;20312;-91
2022/01/18 06:11:08;;;;;;;42.67;11.95;;;5.60;99.90;;;;;;5015605;28;20037;-91
2022/01/18 06:13:33;;;;;;;59.28;12.50;;;5.50;99.90;;;;;;5016514;28;20029;-91
2022/01/18 06:15:59;;;;;;;45.90;11.65;;;5.50;99.90;;;;;;5032002;28;20493;-92
2022/01/18 06:18:24;;;;;;;49.55;12.73;;;5.50;99.90;;;;;;5012142;28;20022;-93
2022/01/18 06:20:50;;;;;;;63.88;12.95;;;5.50;99.90;;;;;;5016624;28;20030;-92
2022/01/18 06:23:15;;;;;;;45.45;11.77;;;5.60;99.90;;;;;;5016001;28;20021;-91
2022/01/18 06:25:42;;;;;;;47.90;12.05;;;5.60;99.90;;;;;;5018167;28;20037;-93
2022/01/18 06:28:08;;;;;;;48.20;10.73;;;5.60;99.90;;;;;;5031750;28;20032;-92
2022/01/18 06:30:33;;;;;;;70.55;13.18;;;5.60;99.90;;;;;;5017552;28;20033;-92
2022/01/18 06:32:59;;;;;;;47.00;12.15;;;5.50;99.90;;;;;;5015537;28;20509;-92
2022/01/18 06:35:24;;;;;;;52.08;11.35;;;5.50;99.90;;;;;;5012283;28;20465;-92
2022/01/18 06:37:50;;;;;;;57.58;13.05;;;5.50;99.90;;;;;;5012704;28;20410;-92
2022/01/18 06:40:16;;;;;;;44.70;10.90;;;5.50;99.90;;;;;;5015792;28;20033;-92
2022/01/18 06:42:43;;;;;;;48.78;11.48;;;5.50;99.90;;;;;;5017206;28;20022;-91
2022/01/18 06:45:10;;;;;;;44.00;10.88;;;5.60;99.90;;;;;;5028249;28;20029;-92
2022/01/18 06:47:36;;;;;;;45.25;10.25;;;5.60;99.90;;;;;;5020583;28;20017;-92
2022/01/18 06:50:03;;;;;;;54.25;11.85;;;5.60;99.90;;;;;;5005380;28;20476;-91
2022/01/18 06:52:29;;;;;;;58.33;10.98;;;5.60;99.90;;;;;;5016366;28;20067;-92
2022/01/18 06:54:54;;;;;;;75.15;10.70;;;5.60;99.90;;;;;;5020539;28;20033;-91
2022/01/18 06:57:20;;;;;;;48.05;10.88;;;5.60;99.90;;;;;;5014733;28;20022;-92
2022/01/18 06:59:46;;;;;;;62.92;10.43;;;5.60;99.90;;;;;;5014355;28;20404;-92
2022/01/18 07:02:11;;;;;;;47.22;11.20;;;5.60;99.90;;;;;;5016447;28;20485;-92
2022/01/18 07:04:37;;;;;;;50.58;10.00;;;5.50;99.90;;;;;;5016113;28;20040;-92
2022/01/18 07:07:03;;;;;;;40.15;9.52;;;5.50;99.90;;;;;;5019412;28;20021;-92
2022/01/18 07:09:29;;;;;;;76.82;11.98;;;5.50;99.90;;;;;;5017208;28;20033;-92
2022/01/18 07:11:56;;;;;;;85.15;10.68;;;5.50;99.90;;;;;;5018531;28;20382;-92
2022/01/18 07:14:22;;;;;;;94.40;10.60;;;5.60;99.90;;;;;;5028240;28;20378;-92
2022/01/18 07:16:48;;;;;;;43.83;9.23;;;5.60;99.90;;;;;;5019000;28;20025;-92
2022/01/18 07:19:14;;;;;;;82.43;10.63;;;5.50;99.90;;;;;;5018095;28;20053;-91
2022/01/18 07:21:39;;;;;;;120.18;11.35;;;5.50;99.90;;;;;;5037263;28;20037;-91
2022/01/18 07:24:16;;;;;;;107.75;12.52;;;5.50;99.90;;;;;;5014254;28;20215;-92
2022/01/18 07:26:42;;;;;;;60.80;9.05;;;5.50;99.90;;;;;;5018435;28;20026;-91
2022/01/18 07:29:07;;;;;;;195.23;10.70;;;5.40;99.90;;;;;;5017058;28;20044;-91
2022/01/18 07:31:33;;;;;;;116.18;10.30;;;5.40;99.90;;;;;;5016363;28;20018;-91
2022/01/18 07:33:58;;;;;;;216.10;11.73;;;5.30;99.90;;;;;;5008698;28;20057;-91
2022/01/18 07:36:24;;;;;;;144.32;11.82;;;5.30;99.90;;;;;;5007677;28;20026;-91
2022/01/18 07:38:50;;;;;;;297.00;15.73;;;5.20;99.90;;;;;;5008099;28;20042;-91
2022/01/18 07:41:17;;;;;;;122.60;11.55;;;5.20;99.90;;;;;;5016439;28;20048;-91
2022/01/18 07:43:43;;;;;;;58.63;8.35;;;5.30;99.90;;;;;;5015903;28;20068;-91
2022/01/18 07:46:09;;;;;;;86.78;10.10;;;5.30;99.90;;;;;;5015805;28;20032;-92
2022/01/18 07:48:34;;;;;;;72.03;8.73;;;5.30;99.90;;;;;;5013149;28;20025;-90
2022/01/18 07:51:00;;;;;;;97.25;8.52;;;5.30;99.90;;;;;;4996702;28;20036;-90
2022/01/18 07:53:26;;;;;;;74.32;9.13;;;5.30;99.90;;;;;;5015803;28;20025;-90
2022/01/18 07:55:55;;;;;;;167.88;10.35;;;5.30;99.90;;;;;;5015967;28;20086;-90
2022/01/18 07:58:20;;;;;;;249.05;14.50;;;5.30;99.90;;;;;;5015818;28;20025;-91
2022/01/18 08:00:47;;;;;;;119.70;9.20;;;5.30;99.90;;;;;;5014481;28;20497;-91
2022/01/18 08:03:13;;;;;;;92.32;8.35;;;5.20;99.90;;;;;;5012874;28;20121;-91
2022/01/18 08:05:39;;;;;;;70.40;6.53;;;5.30;99.90;;;;;;5017551;28;20493;-93
2022/01/18 08:08:05;;;;;;;53.92;6.43;;;5.20;99.90;;;;;;5040152;28;20469;-92
2022/01/18 08:10:31;;;;;;;106.75;8.85;;;5.20;99.90;;;;;;5016277;28;20044;-93
2022/01/18 08:13:01;;;;;;;160.23;9.35;;;5.20;99.90;;;;;;5015984;28;20155;-92
2022/01/18 08:15:28;;;;;;;67.88;6.35;;;5.20;99.90;;;;;;5024316;28;20033;-92
2022/01/18 08:17:55;;;;;;;79.22;8.18;;;5.20;99.90;;;;;;5028950;28;20519;-92
2022/01/18 08:20:21;;;;;;;126.82;9.57;;;5.20;99.90;;;;;;5006709;28;20033;-92
2022/01/18 08:22:47;;;;;;;179.27;11.48;;;5.10;99.90;;;;;;5032967;28;20083;-92
2022/01/18 08:25:15;;;;;;;119.45;10.38;;;5.10;99.90;;;;;;5033181;28;20028;-93
2022/01/18 08:27:42;;;;;;;103.20;10.63;;;5.10;99.90;;;;;;5024977;28;20380;-94
2022/01/18 08:30:10;;;;;;;226.75;12.77;;;5.10;99.90;;;;;;5027461;28;20041;-93
2022/01/18 08:32:37;;;;;;;141.55;9.38;;;5.00;99.90;;;;;;5013011;28;20037;-93
2022/01/18 08:35:04;;;;;;;57.05;7.10;;;5.00;99.90;;;;;;5014777;28;20029;-93
2022/01/18 08:37:29;;;;;;;100.90;9.25;;;5.00;99.90;;;;;;5028379;28;20389;-93
2022/01/18 08:39:55;;;;;;;113.13;9.23;;;5.00;99.90;;;;;;5020986;28;20029;-93
2022/01/18 08:42:20;;;;;;;83.13;9.15;;;5.10;99.90;;;;;;5016229;28;20032;-93
2022/01/18 08:44:46;;;;;;;62.53;7.70;;;5.10;99.90;;;;;;5012211;28;20042;-92
2022/01/18 08:47:14;;;;;;;61.08;7.88;;;5.00;99.90;;;;;;5007143;28;20128;-92
2022/01/18 08:49:39;;;;;;;115.53;9.25;;;5.10;99.90;;;;;;5015336;28;20034;-93
2022/01/18 08:52:06;;;;;;;165.73;11.90;;;5.10;99.90;;;;;;5013551;28;20022;-93
2022/01/18 08:54:31;;;;;;;165.65;11.35;;;5.00;99.90;;;;;;5012555;28;20112;-92
2022/01/18 08:56:57;;;;;;;112.53;9.82;;;5.00;99.90;;;;;;5015271;28;20072;-93
2022/01/18 08:59:23;;;;;;;116.00;11.05;;;5.00;99.90;;;;;;5019200;28;20029;-93
2022/01/18 09:01:50;;;;;;;117.05;11.38;;;5.00;99.90;;;;;;5015157;28;20485;-93
2022/01/18 09:04:16;;;;;;;98.55;10.55;;;5.00;99.90;;;;;;5020530;28;20069;-93
2022/01/18 09:06:44;;;;;;;54.80;10.98;;;5.00;99.90;;;;;;5037870;28;20033;-93
2022/01/18 09:09:11;;;;;;;39.85;9.48;;;5.10;99.90;;;;;;5048179;28;20468;-92
2022/01/18 09:11:37;;;;;;;71.07;15.13;;;5.20;99.90;;;;;;5015550;28;20036;-93
2022/01/18 09:14:02;;;;;;;55.15;13.93;;;5.30;99.90;;;;;;5014022;28;20497;-92
2022/01/18 09:16:28;;;;;;;95.70;13.50;;;5.30;99.90;;;;;;5011575;28;20079;-92
2022/01/18 09:18:53;;;;;;;73.03;12.48;;;5.30;99.90;;;;;;5014449;28;20045;-93
2022/01/18 09:21:19;;;;;;;46.95;9.48;;;5.30;99.90;;;;;;5015227;28;20370;-93
2022/01/18 09:23:45;;;;;;;30.95;7.80;;;5.30;99.90;;;;;;5012386;28;20421;-93
2022/01/18 09:26:13;;;;;;;50.38;8.15;;;5.30;99.90;;;;;;5010370;28;20041;-94
2022/01/18 09:28:39;;;;;;;56.63;8.10;;;5.30;99.90;;;;;;5037192;28;20025;-95
2022/01/18 09:31:04;;;;;;;46.88;6.68;;;5.30;99.90;;;;;;5033005;28;20040;-93
2022/01/18 09:33:30;;;;;;;63.97;8.02;;;5.20;99.90;;;;;;5018294;28;20053;-94
2022/01/18 09:35:55;;;;;;;104.40;9.88;;;5.20;99.90;;;;;;5016659;28;20032;-94
2022/01/18 09:38:21;;;;;;;38.15;7.85;;;5.10;99.90;;;;;;5007167;28;20018;-92
2022/01/18 09:40:47;;;;;;;91.93;10.57;;;5.10;99.90;;;;;;5015365;28;20060;-93
2022/01/18 09:43:14;;;;;;;63.50;9.02;;;5.10;99.90;;;;;;5014863;28;20036;-94
2022/01/18 09:45:45;;;;;;;65.25;8.55;;;5.20;99.90;;;;;;5014294;28;20022;-93
2022/01/18 09:48:12;;;;;;;65.80;10.95;;;5.30;99.90;;;;;;5014877;28;20111;-93
2022/01/18 09:50:40;;;;;;;48.65;9.63;;;5.40;99.90;;;;;;5014940;28;20060;-94
2022/01/18 09:53:08;;;;;;;98.75;9.38;;;5.50;99.90;;;;;;4995667;28;20026;-94
2022/01/18 09:55:35;;;;;;;56.80;8.82;;;5.50;99.90;;;;;;5003181;28;20116;-93
2022/01/18 09:58:04;;;;;;;76.60;8.32;;;5.50;99.90;;;;;;5014397;28;20025;-94
2022/01/18 10:00:31;;;;;;;38.92;8.25;;;5.40;99.90;;;;;;5015172;28;20025;-93
2022/01/18 10:02:58;;;;;;;47.80;8.18;;;5.30;99.90;;;;;;5032778;28;20095;-94
2022/01/18 10:05:30;;;;;;;55.92;8.30;;;5.20;99.90;;;;;;5012273;28;20050;-93
2022/01/18 10:08:12;;;;;;;75.25;9.13;;;5.20;99.90;;;;;;5012908;28;20025;-93
2022/01/18 10:10:50;;;;;;;48.72;7.40;;;5.20;99.90;;;;;;5032503;28;20034;-92
2022/01/18 10:13:25;;;;;;;32.88;6.50;;;5.20;99.90;;;;;;5035973;28;20032;-93
2022/01/18 10:16:09;;;;;;;38.90;6.53;;;5.20;99.90;;;;;;5036128;28;20039;-92
2022/01/18 10:18:42;;;;;;;37.78;6.30;;;5.20;99.90;;;;;;5018594;28;20022;-93
2022/01/18 10:21:08;;;;;;;49.40;7.00;;;5.20;99.90;;;;;;5018584;28;20025;-93
2022/01/18 10:23:34;;;;;;;68.90;9.10;;;5.30;99.90;;;;;;5035827;28;20029;-93
2022/01/18 10:26:19;;;;;;;100.53;9.77;;;5.20;99.90;;;;;;5017580;28;20026;-92
2022/01/18 10:28:46;;;;;;;86.13;8.82;;;5.20;99.90;;;;;;5025543;28;20544;-92
2022/01/18 10:31:43;;;;;;;56.42;7.97;;;5.20;99.90;;;;;;5017912;28;20030;-93
2022/01/18 10:34:30;;;;;;;57.20;7.32;;;5.30;99.90;;;;;;5017881;28;20045;-92
2022/01/18 10:37:03;;;;;;;53.00;8.23;;;5.40;99.90;;;;;;5017842;28;20117;-93
2022/01/18 10:39:33;;;;;;;71.80;8.18;;;5.50;99.90;;;;;;5035455;28;20022;-93
2022/01/18 10:42:01;;;;;;;119.43;10.43;;;5.50;99.90;;;;;;5017482;28;20029;-93
2022/01/18 10:44:30;;;;;;;51.60;8.93;;;5.60;99.90;;;;;;5011427;28;20029;-92
2022/01/18 10:46:57;;;;;;;104.65;9.82;;;5.60;99.90;;;;;;5008838;28;20029;-94
2022/01/18 10:49:39;;;;;;;113.22;10.07;;;5.60;99.90;;;;;;5011125;28;20041;-93
2022/01/18 10:52:10;;;;;;;70.93;8.93;;;5.70;99.90;;;;;;5035334;28;20387;-93
2022/01/18 10:54:48;;;;;;;51.42;7.80;;;5.70;99.90;;;;;;5016867;28;20034;-92
2022/01/18 10:57:28;;;;;;;100.80;10.82;;;5.70;99.90;;;;;;5017675;28;20041;-92
2022/01/18 11:00:18;;;;;;;41.08;9.63;;;5.80;99.90;;;;;;5017626;28;20017;-93
2022/01/18 11:02:50;;;;;;;38.28;8.90;;;5.90;99.90;;;;;;5016316;28;20504;-93
2022/01/18 11:05:20;;;;;;;42.65;9.40;;;5.90;99.90;;;;;;5034970;28;20032;-93
2022/01/18 11:07:47;;;;;;;33.03;7.90;;;5.90;99.90;;;;;;5033777;28;20482;-94
2022/01/18 11:10:15;;;;;;;29.13;8.65;;;5.90;99.90;;;;;;5017330;28;20046;-93
2022/01/18 11:12:53;;;;;;;41.22;9.27;;;5.90;99.90;;;;;;5016798;28;20025;-93
2022/01/18 11:15:22;;;;;;;36.20;8.80;;;6.00;99.90;;;;;;5016575;28;20108;-94
2022/01/18 11:17:58;;;;;;;29.95;8.98;;;6.00;99.90;;;;;;5026299;28;20392;-92
2022/01/18 11:20:29;;;;;;;32.20;9.13;;;6.00;99.90;;;;;;5033912;28;20040;-93
2022/01/18 11:22:55;;;;;;;29.90;8.60;;;6.00;99.90;;;;;;5034683;28;20049;-92
2022/01/18 11:25:22;;;;;;;40.58;10.35;;;6.10;99.90;;;;;;5016140;28;20523;-92
2022/01/18 11:27:51;;;;;;;45.05;9.60;;;6.10;99.90;;;;;;5034517;28;20021;-93
2022/01/18 11:30:19;;;;;;;41.05;10.60;;;6.20;99.90;;;;;;5034266;28;20040;-93
2022/01/18 11:32:45;;;;;;;39.25;10.50;;;6.30;99.90;;;;;;5033999;28;20060;-91
2022/01/18 11:35:25;;;;;;;40.28;10.75;;;6.30;99.90;;;;;;5031598;28;20705;-92
2022/01/18 11:38:31;;;;;;;49.90;11.13;;;6.40;99.90;;;;;;5008813;28;20068;-92
2022/01/18 11:40:58;;;;;;;41.90;11.00;;;6.60;99.90;;;;;;5020398;28;20482;-93
2022/01/18 11:43:40;;;;;;;49.08;11.15;;;6.60;99.90;;;;;;5015630;28;20084;-93
2022/01/18 11:46:24;;;;;;;42.88;11.98;;;6.60;99.90;;;;;;5053673;28;20017;-92
2022/01/18 11:49:17;;;;;;;31.55;10.07;;;6.70;99.90;;;;;;5035251;28;20033;-92
2022/01/18 11:51:50;;;;;;;46.53;12.07;;;6.70;99.90;;;;;;5029251;28;20057;-92
2022/01/18 11:57:23;;;;;;;38.67;11.55;;;6.80;99.90;;;;;;5034267;28;20470;-94
2022/01/18 11:59:50;;;;;;;38.45;11.93;;;6.90;99.90;;;;;;5014683;28;20037;-92
2022/01/18 12:02:41;;;;;;;43.67;12.90;;;6.90;99.90;;;;;;5031228;28;20083;-92
2022/01/18 12:05:19;;;;;;;44.10;13.50;;;7.00;99.90;;;;;;5016769;28;20116;-92
2022/01/18 12:07:46;;;;;;;40.50;13.40;;;7.00;99.90;;;;;;5015890;28;20021;-93
2022/01/18 12:10:30;;;;;;;45.10;13.00;;;7.20;99.90;;;;;;5029441;28;20040;-92
2022/01/18 12:12:58;;;;;;;45.10;13.65;;;7.20;99.90;;;;;;5014510;28;20113;-93
2022/01/18 12:15:26;;;;;;;42.35;13.38;;;7.20;99.90;;;;;;5032921;28;20028;-92
2022/01/18 12:18:01;;;;;;;46.13;15.40;;;7.20;99.90;;;;;;5015574;28;20034;-92
2022/01/18 12:20:46;;;;;;;49.97;14.68;;;7.30;99.90;;;;;;5032983;28;20060;-91
2022/01/18 12:23:13;;;;;;;49.20;15.27;;;7.40;99.90;;;;;;5015795;28;20476;-93
2022/01/18 12:25:59;;;;;;;47.47;14.70;;;7.50;99.90;;;;;;5015390;28;20030;-92
2022/01/18 12:34:34;;;;;;;46.78;14.75;;;7.70;99.90;;;;;;5021144;28;20509;-92
2022/01/18 12:37:13;;;;;;;47.17;15.50;;;7.80;99.90;;;;;;5015783;28;20049;-93
2022/01/18 12:39:57;;;;;;;51.03;16.25;;;7.80;99.90;;;;;;5026561;28;20032;-92
2022/01/18 12:45:24;;;;;;;43.88;15.55;;;7.80;99.90;;;;;;5032767;28;20028;-91
2022/01/18 12:47:53;;;;;;;45.85;16.42;;;7.80;99.90;;;;;;5019473;28;20098;-91
2022/01/18 12:50:25;;;;;;;53.40;16.33;;;7.90;99.90;;;;;;5011333;28;20128;-92
2022/01/18 12:52:54;;;;;;;49.80;15.75;;;7.90;99.90;;;;;;5024417;28;20029;-93
2022/01/18 12:55:54;;;;;;;52.08;16.05;;;7.90;99.90;;;;;;5012833;28;20486;-93
2022/01/18 12:58:27;;;;;;;43.35;14.57;;;8.00;99.90;;;;;;5014260;28;20160;-93
2022/01/18 13:00:57;;;;;;;41.03;15.32;;;8.00;99.90;;;;;;5015636;28;20021;-90
2022/01/18 13:03:33;;;;;;;45.60;15.38;;;8.00;99.90;;;;;;5014889;28;20045;-91
2022/01/18 13:06:00;;;;;;;42.28;14.90;;;8.00;99.90;;;;;;5015369;28;20378;-91
2022/01/18 13:08:37;;;;;;;46.35;14.25;;;8.10;99.90;;;;;;5000152;28;20021;-90
2022/01/18 13:11:03;;;;;;;38.35;14.65;;;8.00;99.90;;;;;;5028679;28;20030;-91
2022/01/18 13:13:30;;;;;;;42.75;14.60;;;8.00;99.90;;;;;;5005926;28;20017;-92
2022/01/18 13:26:42;;;;;;;38.40;11.32;;;8.10;99.90;;;;;;5025347;28;20026;-92
2022/01/18 13:29:19;;;;;;;39.00;10.50;;;8.10;99.90;;;;;;5019588;28;20531;-91
2022/01/18 13:31:47;;;;;;;37.63;10.88;;;8.30;99.90;;;;;;5022340;28;20432;-89
2022/01/18 13:34:15;;;;;;;32.35;10.48;;;8.30;99.90;;;;;;5030657;28;20125;-91
2022/01/18 13:36:55;;;;;;;36.05;9.80;;;8.30;99.90;;;;;;5019383;28;20549;-91
2022/01/18 13:39:26;;;;;;;26.77;8.05;;;8.30;99.90;;;;;;5004994;28;20033;-91
2022/01/18 13:41:52;;;;;;;30.55;8.40;;;8.20;99.90;;;;;;5031865;28;20478;-89
2022/01/18 13:44:18;;;;;;;34.05;9.02;;;8.10;99.90;;;;;;5030106;28;20053;-92
2022/01/18 13:46:43;;;;;;;27.27;7.85;;;8.10;99.90;;;;;;5023276;28;20036;-92
2022/01/18 13:49:09;;;;;;;26.83;7.97;;;8.00;99.90;;;;;;5035867;28;20087;-92
2022/01/18 13:51:35;;;;;;;30.65;7.47;;;8.00;99.90;;;;;;5036052;28;20030;-93
2022/01/18 13:54:06;;;;;;;26.90;6.57;;;8.10;99.90;;;;;;5036192;28;20037;-92
2022/01/18 13:56:32;;;;;;;35.67;8.10;;;8.20;99.90;;;;;;5022813;28;20026;-92
2022/01/18 13:59:05;;;;;;;29.70;6.63;;;8.20;99.90;;;;;;5018398;28;20029;-92
2022/01/18 14:01:37;;;;;;;31.52;6.90;;;8.20;99.90;;;;;;4999987;28;20109;-92
2022/01/18 14:04:18;;;;;;;25.08;6.07;;;8.20;99.90;;;;;;5014246;28;20397;-93
2022/01/18 14:06:45;;;;;;;31.10;7.07;;;8.20;99.90;;;;;;5014781;28;20030;-93
2022/01/18 14:09:13;;;;;;;29.00;6.15;;;8.20;99.90;;;;;;5025692;28;20042;-92